Lake Park, Georgia
Current Conditions -  °F | °C
As of 10:53 AM on Wednesday 26 Nov 2014 (Local Time) from KVLD Reporting Station
Clear Clear  
Wind Chill: 56°   Ceiling: Unl
Heat Index: 56°   Visibility: 10mi
Dew Point: 46°   Wind: 3mph
Humidity: 69%   Direction: NA
Pressure: 30.15"   Gusts: NA
Location:  30.68°N, 83.18°W
Report Text: KVLD 261553Z VRB03KT 10SM CLR 13/08 A3015 RMK AO2 SLP218 T01330078
Loading
Personal Weather Stations






























Interactive Weather Map New forecast layout! Learn more

10-Day Weather Forecast

Advertisements
Track Severe Weather on mobile